Accueil
METAR-TAF:

METAR-TAF

Aéroports :

Mönchengladbach, Allemagne

latitude: 51-13-49N, longitude: 006-30-16E, altitude: 38 m

Observation

Le bulletin a été fait il y a 23 minutes, à 03:50 UTC
Vent 4 kt de sud/sud-ouest
Température 19°C
Humidité 83%
Pression 1010 hPa
Visibilité 10 km ou plus

METAR: EDLN 190350Z AUTO 20004KT 9999 // NCD 19/16 Q1010

Heure: 06:13 (04:13 UTC)

Prévision

Le bulletin a été fait il y a 11 heures et 13 minutes, à 17:00 UTC
Prévision valable du 18 à 18 UTC au 19 à 03 UTC
Vent 9 kt de sud/sud-est
Visibilité 10 km ou plus
pas de nuages en-dessous de 1500 mètres et pas de cumulonimbus.
Evoluant progressivement
du 18 à 18 UTC au 18 à 21 UTC
Vent 3 kt de sud/sud-ouest

TAF: EDLN 181700Z 1818/1903 15009KT CAVOK BECMG 1818/1821 20003KT

Observations et prévisions météorologiques de plus de 4000 aéroports (messages METAR et TAF).

Les stations disponibles sont représentées par des disques jaunes et rouges sur la carte.

Passer la souris dessus pour voir le nom de la station.

Cliquer dessus pour voir les observations et prévisions météorologiques.

Pour changer de carte: cliquez sur les boutons verts avec une croix noire pour zoomer, sur le bouton vert avec un tiret pour effectuer un zoom arrière, ou sur les flèches vertes pour les cartes adjacentes.


METAR-TAF: